sensor_id;sensor_type;location;lat;lon;timestamp;P1;durP1;ratioP1;P2;durP2;ratioP2
71955;SDS011;59829;50.562;6.258;2023-04-28T00:28:14;4.95;;;2.85;;
71955;SDS011;59829;50.562;6.258;2023-04-28T00:58:14;4.20;;;2.42;;
71955;SDS011;59829;50.562;6.258;2023-04-28T01:28:15;4.40;;;2.17;;
71955;SDS011;59829;50.562;6.258;2023-04-28T01:58:15;2.72;;;1.60;;
71955;SDS011;59829;50.562;6.258;2023-04-28T02:28:16;5.68;;;2.28;;
71955;SDS011;59829;50.562;6.258;2023-04-28T02:58:16;4.10;;;2.17;;
71955;SDS011;59829;50.562;6.258;2023-04-28T03:28:16;4.35;;;2.30;;
71955;SDS011;59829;50.562;6.258;2023-04-28T03:58:17;5.15;;;2.65;;
71955;SDS011;59829;50.562;6.258;2023-04-28T04:28:17;5.53;;;2.55;;
71955;SDS011;59829;50.562;6.258;2023-04-28T04:58:17;5.20;;;2.70;;
71955;SDS011;59829;50.562;6.258;2023-04-28T05:28:18;5.13;;;2.97;;
71955;SDS011;59829;50.562;6.258;2023-04-28T05:58:19;6.13;;;2.60;;
71955;SDS011;59829;50.562;6.258;2023-04-28T06:28:20;5.00;;;2.35;;
71955;SDS011;59829;50.562;6.258;2023-04-28T06:58:20;2.90;;;1.83;;
71955;SDS011;59829;50.562;6.258;2023-04-28T07:28:21;1.50;;;0.75;;
71955;SDS011;59829;50.562;6.258;2023-04-28T07:58:21;1.90;;;0.57;;
71955;SDS011;59829;50.562;6.258;2023-04-28T08:28:21;1.48;;;1.05;;
71955;SDS011;59829;50.562;6.258;2023-04-28T08:58:22;1.30;;;0.70;;
71955;SDS011;59829;50.562;6.258;2023-04-28T09:28:24;1.23;;;0.73;;
71955;SDS011;59829;50.562;6.258;2023-04-28T09:58:25;2.20;;;1.07;;
71955;SDS011;59829;50.562;6.258;2023-04-28T10:28:26;0.63;;;0.63;;
71955;SDS011;59829;50.562;6.258;2023-04-28T11:28:27;1.90;;;1.20;;
71955;SDS011;59829;50.562;6.258;2023-04-28T11:58:27;1.63;;;0.77;;
71955;SDS011;59829;50.562;6.258;2023-04-28T12:28:37;0.52;;;0.40;;
71955;SDS011;59829;50.562;6.258;2023-04-28T12:58:39;1.15;;;0.70;;
71955;SDS011;59829;50.562;6.258;2023-04-28T13:28:40;0.90;;;0.80;;
71955;SDS011;59829;50.562;6.258;2023-04-28T13:58:41;1.35;;;0.80;;
71955;SDS011;59829;50.562;6.258;2023-04-28T14:28:41;0.70;;;0.40;;
71955;SDS011;59829;50.562;6.258;2023-04-28T14:58:41;0.70;;;0.60;;
71955;SDS011;59829;50.562;6.258;2023-04-28T15:28:42;1.80;;;1.20;;
71955;SDS011;59829;50.562;6.258;2023-04-28T15:58:42;1.35;;;1.00;;
71955;SDS011;59829;50.562;6.258;2023-04-28T16:28:42;2.33;;;1.70;;
71955;SDS011;59829;50.562;6.258;2023-04-28T16:58:43;1.98;;;1.40;;
71955;SDS011;59829;50.562;6.258;2023-04-28T17:28:43;1.80;;;1.17;;
71955;SDS011;59829;50.562;6.258;2023-04-28T17:58:43;1.60;;;1.10;;
71955;SDS011;59829;50.562;6.258;2023-04-28T18:28:47;2.03;;;1.30;;
71955;SDS011;59829;50.562;6.258;2023-04-28T18:58:47;2.45;;;1.55;;
71955;SDS011;59829;50.562;6.258;2023-04-28T19:28:47;1.87;;;1.27;;
71955;SDS011;59829;50.562;6.258;2023-04-28T19:58:48;1.33;;;0.77;;
71955;SDS011;59829;50.562;6.258;2023-04-28T20:28:49;1.80;;;0.95;;
71955;SDS011;59829;50.562;6.258;2023-04-28T20:58:49;2.20;;;1.63;;
71955;SDS011;59829;50.562;6.258;2023-04-28T21:28:50;2.55;;;1.63;;
71955;SDS011;59829;50.562;6.258;2023-04-28T21:58:50;4.03;;;2.17;;
71955;SDS011;59829;50.562;6.258;2023-04-28T22:28:51;5.45;;;2.30;;
71955;SDS011;59829;50.562;6.258;2023-04-28T22:58:51;3.95;;;2.28;;
71955;SDS011;59829;50.562;6.258;2023-04-28T23:28:51;11.50;;;5.65;;
71955;SDS011;59829;50.562;6.258;2023-04-28T23:58:52;8.90;;;4.55;;
